.
WxDataArchive / Data Records for 2009-02-01
2009-01-31 February 2009 2009-02-02

Data Records for Sunday, 01 February 2009

Time	Temp	Chill	HIndex	Humid	Dewpt	 Wind 	HiWind	WindDir	Rain 	Barom 
-----	----	-----	------	-----	-----	------	------	-------	-----	----- 
00:00	33.5	29.8	33.5	79	27.7	4	9	225	0.00	29.757 
00:05	33.8	30.2	33.8	79	28.0	4	12	248	0.00	29.752 
00:10	34.1	29.5	34.1	79	28.3	5	14	248	0.00	29.752 
00:15	34.4	30.8	34.4	79	28.6	4	9	248	0.00	29.750 
00:20	34.7	31.2	34.7	78	28.6	4	10	248	0.00	29.748 
00:25	34.9	31.4	34.9	78	28.7	4	10	248	0.00	29.747 
00:30	35.2	30.8	35.2	78	29.0	5	11	248	0.00	29.748 
00:35	35.6	31.3	35.6	78	29.4	5	11	270	0.00	29.746 
00:40	36.2	32.0	36.2	77	29.7	5	14	248	0.00	29.745 
00:45	36.2	36.2	36.2	77	29.7	3	9	248	0.00	29.745 
00:50	36.3	33.0	36.3	77	29.8	4	10	248	0.00	29.744 
00:55	36.8	31.9	36.8	76	30.0	6	11	270	0.00	29.742 
01:00	37.0	32.2	37.0	76	30.2	6	14	270	0.00	29.742 
01:05	37.3	32.5	37.3	75	30.1	6	16	248	0.00	29.740 
01:10	37.5	32.8	37.5	75	30.3	6	15	248	0.00	29.738 
01:15	37.6	32.9	37.6	74	30.1	6	13	248	0.00	29.737 
01:20	37.8	33.1	37.8	74	30.3	6	13	248	0.00	29.734 
01:25	37.8	33.9	37.8	74	30.3	5	10	248	0.00	29.731 
01:30	38.0	33.4	38.0	74	30.5	6	12	248	0.00	29.730 
01:35	38.2	33.6	38.2	73	30.3	6	17	248	0.00	29.728 
01:40	38.2	35.2	38.2	73	30.3	4	12	270	0.00	29.726 
01:45	38.3	34.5	38.3	73	30.4	5	11	270	0.00	29.724 
01:50	38.5	34.0	38.5	73	30.6	6	16	248	0.00	29.724 
01:55	38.6	34.1	38.6	73	30.7	6	16	270	0.00	29.724 
02:00	38.6	35.7	38.6	73	30.7	4	12	248	0.01	29.723 
02:05	38.8	34.3	38.8	73	30.9	6	15	248	0.00	29.723 
02:10	39.1	35.4	39.1	72	30.8	5	14	248	0.00	29.723 
02:15	39.2	34.8	39.2	72	30.9	6	15	270	0.00	29.723 
02:20	39.3	35.7	39.3	72	31.0	5	12	248	0.00	29.725 
02:25	39.5	35.9	39.5	72	31.2	5	13	270	0.00	29.724 
02:30	39.5	35.9	39.5	72	31.2	5	12	270	0.00	29.722 
02:35	39.6	35.3	39.6	71	31.0	6	14	248	0.01	29.723 
02:40	39.9	35.6	39.9	71	31.3	6	12	248	0.00	29.722 
02:45	39.9	35.6	39.9	71	31.3	6	11	248	0.01	29.722 
02:50	40.1	35.9	40.1	71	31.5	6	17	248	0.01	29.724 
02:55	40.2	35.4	40.2	71	31.6	7	12	248	0.00	29.722 
03:00	40.1	36.6	40.1	71	31.5	5	15	248	0.01	29.722 
03:05	40.2	36.0	40.2	71	31.6	6	13	248	0.00	29.720 
03:10	40.2	36.7	40.2	71	31.6	5	15	248	0.01	29.724 
03:15	40.2	36.0	40.2	71	31.6	6	10	270	0.01	29.725 
03:20	40.2	35.4	40.2	71	31.6	7	15	270	0.00	29.729 
03:25	40.1	36.6	40.1	71	31.5	5	12	270	0.01	29.732 
03:30	40.1	35.3	40.1	71	31.5	7	14	270	0.00	29.735 
03:35	39.9	35.6	39.9	71	31.3	6	13	248	0.01	29.736 
03:40	39.8	37.1	39.8	72	31.5	4	10	248	0.00	29.738 
03:45	39.9	35.0	39.9	72	31.6	7	15	270	0.01	29.742 
03:50	39.9	36.4	39.9	71	31.3	5	11	248	0.01	29.743 
03:55	39.9	36.4	39.9	71	31.3	5	11	270	0.00	29.745 
04:00	39.9	36.4	39.9	72	31.6	5	11	270	0.01	29.743 
04:05	39.8	36.2	39.8	72	31.5	5	10	270	0.01	29.748 
04:10	39.6	36.9	39.6	72	31.3	4	9	270	0.00	29.751 
04:15	39.5	35.9	39.5	72	31.2	5	10	270	0.01	29.750 
04:20	39.5	35.9	39.5	73	31.6	5	12	248	0.01	29.751 
04:25	39.5	35.9	39.5	73	31.6	5	12	270	0.00	29.751 
04:30	39.3	36.5	39.3	73	31.4	4	12	248	0.01	29.754 
04:35	39.2	36.4	39.2	73	31.3	4	11	248	0.01	29.754 
04:40	39.1	35.4	39.1	73	31.2	5	11	270	0.00	29.754 
04:45	39.1	35.4	39.1	73	31.2	5	10	248	0.01	29.756 
04:50	39.2	35.5	39.2	73	31.3	5	11	270	0.00	29.760 
04:55	39.2	36.4	39.2	73	31.3	4	12	270	0.01	29.764 
05:00	38.9	38.9	38.9	73	31.0	3	9	248	0.00	29.763 
05:05	38.8	35.9	38.8	73	30.9	4	7	248	0.01	29.766 
05:10	38.6	38.6	38.6	74	31.0	3	9	270	0.00	29.769 
05:15	38.5	38.5	38.5	74	30.9	3	8	270	0.01	29.773 
05:20	38.5	38.5	38.5	74	30.9	2	5	248	0.00	29.774 
05:25	38.5	34.7	38.5	74	30.9	5	10	248	0.00	29.773 
05:30	38.6	35.7	38.6	74	31.0	4	10	270	0.00	29.774 
05:35	38.5	35.6	38.5	74	30.9	4	9	248	0.01	29.774 
05:40	38.3	35.4	38.3	74	30.8	4	11	270	0.00	29.778 
05:45	38.2	38.2	38.2	74	30.7	3	7	248	0.00	29.782 
05:50	38.0	38.0	38.0	74	30.5	3	6	270	0.00	29.782 
05:55	37.9	37.9	37.9	75	30.7	3	10	248	0.01	29.785 
06:00	37.9	34.9	37.9	75	30.7	4	10	248	0.00	29.787 
06:05	37.8	34.8	37.8	75	30.6	4	9	248	0.00	29.785 
06:10	37.8	37.8	37.8	75	30.6	3	6	248	0.00	29.789 
06:15	37.6	37.6	37.6	75	30.4	3	9	248	0.00	29.792 
06:20	37.6	34.5	37.6	75	30.4	4	11	270	0.00	29.794 
06:25	37.5	37.5	37.5	75	30.3	2	6	248	0.01	29.799 
06:30	37.3	37.3	37.3	76	30.4	3	7	248	0.00	29.803 
06:35	37.2	37.2	37.2	76	30.3	3	5	248	0.00	29.808 
06:40	37.2	37.2	37.2	76	30.3	3	6	270	0.00	29.813 
06:45	37.0	37.0	37.0	77	30.5	2	6	248	0.00	29.816 
06:50	36.9	36.9	36.9	77	30.4	3	6	270	0.00	29.818 
06:55	36.9	36.9	36.9	77	30.4	3	7	248	0.00	29.820 
07:00	36.6	36.6	36.6	77	30.1	3	7	248	0.00	29.824 
07:05	36.6	36.6	36.6	77	30.1	3	9	270	0.00	29.824 
07:10	36.3	36.3	36.3	77	29.8	2	7	225	0.01	29.826 
07:15	36.2	36.2	36.2	78	30.0	2	6	270	0.00	29.831 
07:20	36.0	36.0	36.0	78	29.8	3	5	270	0.00	29.831 
07:25	35.9	35.9	35.9	78	29.7	3	7	248	0.00	29.833 
07:30	35.8	35.8	35.8	79	29.9	2	6	248	0.00	29.839 
07:35	35.5	35.5	35.5	79	29.6	2	4	270	0.00	29.843 
07:40	35.3	35.3	35.3	79	29.4	3	7	248	0.00	29.846 
07:45	35.0	35.0	35.0	80	29.5	2	5	248	0.00	29.848 
07:50	34.9	34.9	34.9	80	29.4	2	6	248	0.00	29.850 
07:55	34.7	34.7	34.7	80	29.2	2	4	270	0.00	29.853 
08:00	34.6	34.6	34.6	80	29.1	1	4	248	0.00	29.857 
08:05	34.4	34.4	34.4	80	28.9	1	3	248	0.00	29.862 
08:10	34.4	34.4	34.4	80	28.9	1	4	248	0.00	29.865 
08:15	34.3	34.3	34.3	81	29.1	2	6	248	0.00	29.866 
08:20	34.4	34.4	34.4	80	28.9	2	6	248	0.00	29.868 
08:25	34.4	34.4	34.4	80	28.9	2	7	248	0.00	29.871 
08:30	34.6	34.6	34.6	79	28.8	2	5	248	0.00	29.875 
08:35	34.7	34.7	34.7	78	28.6	2	6	248	0.00	29.878 
08:40	34.9	34.9	34.9	78	28.7	2	5	248	0.00	29.879 
08:45	35.0	35.0	35.0	77	28.5	1	4	248	0.00	29.882 
08:50	35.2	35.2	35.2	76	28.4	2	6	248	0.00	29.883 
08:55	35.3	35.3	35.3	75	28.2	1	5	248	0.00	29.886 
09:00	35.5	35.5	35.5	75	28.4	2	6	248	0.01	29.891 
09:05	35.5	35.5	35.5	74	28.0	2	6	248	0.00	29.893 
09:10	35.6	35.6	35.6	73	27.8	2	4	248	0.00	29.896 
09:15	35.6	35.6	35.6	73	27.8	2	5	248	0.00	29.896 
09:20	35.8	35.8	35.8	72	27.7	3	7	248	0.00	29.898 
09:25	35.9	35.9	35.9	72	27.8	2	3	270	0.01	29.903 
09:30	36.0	36.0	36.0	71	27.5	3	5	270	0.00	29.906 
09:35	36.2	36.2	36.2	70	27.4	2	5	248	0.00	29.908 
09:40	36.5	36.5	36.5	69	27.3	2	4	248	0.00	29.909 
09:45	36.5	36.5	36.5	68	27.0	3	7	248	0.01	29.910 
09:50	36.6	36.6	36.6	68	27.1	2	7	270	0.00	29.915 
09:55	36.8	36.8	36.8	68	27.2	2	6	270	0.00	29.920 
10:00	36.8	36.8	36.8	68	27.2	1	4	248	0.00	29.923 
10:05	36.9	36.9	36.9	67	27.0	1	4	248	0.01	29.925 
10:10	37.0	37.0	37.0	67	27.1	1	5	248	0.00	29.926 
10:15	37.0	37.0	37.0	67	27.1	1	4	248	0.00	29.929 
10:20	37.2	37.2	37.2	66	26.9	1	4	248	0.01	29.931 
10:25	37.2	37.2	37.2	66	26.9	1	3	248	0.00	29.935 
10:30	37.2	37.2	37.2	66	26.9	2	6	248	0.00	29.936 
10:35	37.3	37.3	37.3	65	26.6	2	5	270	0.00	29.938 
10:40	37.5	37.5	37.5	65	26.8	1	3	270	0.01	29.939 
10:45	37.6	37.6	37.6	65	26.9	1	5	248	0.00	29.938 
10:50	37.6	37.6	37.6	65	26.9	1	5	248	0.00	29.938 
10:55	37.6	37.6	37.6	64	26.5	1	4	248	0.00	29.938 
11:00	37.9	37.9	37.9	63	26.4	1	3	248	0.00	29.941 
11:05	38.0	38.0	38.0	62	26.2	2	4	248	0.01	29.940 
11:10	38.2	38.2	38.2	63	26.7	1	4	248	0.00	29.942 
11:15	38.2	38.2	38.2	62	26.3	2	5	248	0.00	29.945 
11:20	38.3	38.3	38.3	62	26.4	1	3	248	0.00	29.945 
11:25	38.6	38.6	38.6	62	26.7	1	3	248	0.00	29.947 
11:30	38.6	38.6	38.6	61	26.3	2	6	248	0.00	29.946 
11:35	38.8	38.8	38.8	60	26.1	2	6	248	0.01	29.946 
11:40	39.1	39.1	39.1	60	26.4	1	4	248	0.00	29.946 
11:45	39.5	39.5	39.5	59	26.4	2	4	248	0.00	29.945 
11:50	39.6	39.6	39.6	58	26.1	2	5	248	0.00	29.942 
11:55	39.9	39.9	39.9	58	26.3	1	5	248	0.01	29.944 
12:00	39.8	39.8	39.8	57	25.8	2	6	248	0.00	29.942 
12:05	39.8	39.8	39.8	58	26.2	1	4	270	0.00	29.939 
12:10	40.1	40.1	40.1	57	26.1	1	5	248	0.00	29.937 
12:15	40.2	40.2	40.2	55	25.3	2	3	270	0.01	29.934 
12:20	40.3	40.3	40.3	55	25.4	1	3	248	0.00	29.934 
12:25	40.6	40.6	40.6	55	25.7	1	3	248	0.01	29.931 
12:30	40.9	40.9	40.9	54	25.6	2	5	248	0.00	29.930 
12:35	41.1	41.1	41.1	53	25.3	2	5	315	0.00	29.929 
12:40	41.3	41.3	41.3	53	25.5	1	4	248	0.01	29.929 
12:45	41.3	41.3	41.3	51	24.6	1	3	248	0.00	29.928 
12:50	41.3	41.3	41.3	52	25.0	1	3	248	0.01	29.927 
12:55	41.3	41.3	41.3	53	25.5	1	3	248	0.00	29.925 
13:00	41.2	41.2	41.2	52	24.9	1	2	248	0.01	29.923 
13:05	41.2	41.2	41.2	52	24.9	1	3	248	0.00	29.920 
13:10	41.3	41.3	41.3	50	24.1	1	3	248	0.00	29.917 
13:15	41.5	41.5	41.5	48	23.3	1	4	248	0.01	29.916 
13:20	41.6	41.6	41.6	50	24.4	1	2	270	0.00	29.916 
13:25	41.5	41.5	41.5	48	23.3	1	3	270	0.00	29.916 
13:30	41.2	41.2	41.2	46	22.0	1	3	270	0.01	29.917 
13:35	40.9	40.9	40.9	46	21.7	1	4	270	0.00	29.917 
13:40	40.6	40.6	40.6	47	22.0	2	4	270	0.00	29.916 
13:45	40.6	40.6	40.6	47	22.0	1	3	248	0.00	29.917 
13:50	40.9	40.9	40.9	45	21.2	2	5	248	0.00	29.918 
13:55	41.1	41.1	41.1	46	21.9	2	7	248	0.01	29.916 
14:00	41.1	41.1	41.1	45	21.4	2	7	248	0.00	29.917 
14:05	41.1	41.1	41.1	45	21.4	2	4	248	0.00	29.915 
14:10	41.3	41.3	41.3	46	22.1	2	6	248	0.00	29.916 
14:15	41.5	41.5	41.5	43	20.7	2	5	248	0.01	29.914 
14:20	41.3	41.3	41.3	42	20.0	3	7	248	0.00	29.915 
14:25	41.3	41.3	41.3	42	20.0	2	6	248	0.00	29.915 
14:30	41.3	41.3	41.3	43	20.5	2	4	248	0.00	29.916 
14:35	41.2	41.2	41.2	44	21.0	2	4	248	0.00	29.920 
14:40	41.2	41.2	41.2	44	21.0	1	4	248	0.01	29.923 
14:45	41.3	41.3	41.3	44	21.0	2	6	248	0.00	29.923 
14:50	41.2	41.2	41.2	46	22.0	2	5	248	0.00	29.925 
14:55	41.1	41.1	41.1	47	22.4	2	4	248	0.00	29.928 
15:00	40.8	40.8	40.8	49	23.1	2	7	270	0.00	29.929 
15:05	40.5	40.5	40.5	49	22.9	2	5	248	0.01	29.930 
15:10	40.2	40.2	40.2	50	23.1	2	5	248	0.00	29.931 
15:15	40.1	40.1	40.1	50	23.0	2	7	248	0.00	29.935 
15:20	40.1	40.1	40.1	51	23.4	2	7	248	0.01	29.939 
15:25	39.9	39.9	39.9	52	23.7	1	4	248	0.00	29.939 
15:30	39.8	39.8	39.8	51	23.2	2	4	248	0.00	29.943 
15:35	39.6	39.6	39.6	50	22.5	2	5	248	0.00	29.943 
15:40	39.6	39.6	39.6	52	23.4	2	5	248	0.00	29.945 
15:45	39.5	39.5	39.5	51	22.9	1	3	248	0.00	29.946 
15:50	39.3	39.3	39.3	50	22.2	2	6	248	0.00	29.948 
15:55	39.3	39.3	39.3	52	23.2	1	5	248	0.00	29.949 
16:00	39.3	39.3	39.3	50	22.2	2	4	248	0.00	29.950 
16:05	39.3	39.3	39.3	50	22.2	2	5	248	0.00	29.950 
16:10	39.3	39.3	39.3	50	22.2	3	9	248	0.01	29.950 
16:15	39.2	39.2	39.2	50	22.1	2	6	270	0.00	29.955 
16:20	39.1	39.1	39.1	50	22.0	3	5	248	0.00	29.955 
16:25	39.1	39.1	39.1	50	22.0	2	6	248	0.00	29.958 
16:30	38.9	38.9	38.9	50	21.9	2	5	248	0.00	29.957 
16:35	38.9	38.9	38.9	51	22.3	1	5	248	0.00	29.960 
16:40	38.8	38.8	38.8	51	22.2	1	4	248	0.00	29.961 
16:45	38.8	38.8	38.8	50	21.8	2	4	248	0.00	29.962 
16:50	38.8	38.8	38.8	51	22.2	1	4	248	0.00	29.962 
16:55	38.6	38.6	38.6	50	21.6	1	3	225	0.00	29.964 
17:00	38.5	38.5	38.5	50	21.5	1	4	248	0.00	29.964 
17:05	38.5	38.5	38.5	50	21.5	1	4	248	0.00	29.966 
17:10	38.3	38.3	38.3	50	21.3	1	4	248	0.00	29.966 
17:15	38.0	38.0	38.0	50	21.0	1	3	248	0.00	29.967 
17:20	37.9	37.9	37.9	50	20.9	1	4	248	0.00	29.968 
17:25	37.8	37.8	37.8	50	20.8	1	4	248	0.00	29.973 
17:30	37.6	37.6	37.6	50	20.7	2	4	248	0.00	29.975 
17:35	37.5	37.5	37.5	51	21.0	1	4	248	0.00	29.975 
17:40	37.3	37.3	37.3	52	21.3	1	5	248	0.00	29.978 
17:45	37.3	37.3	37.3	52	21.3	2	7	248	0.00	29.980 
17:50	37.2	37.2	37.2	52	21.2	1	3	248	0.00	29.980 
17:55	37.0	37.0	37.0	52	21.0	2	6	248	0.00	29.978 
18:00	37.0	37.0	37.0	53	21.5	0	2	248	0.00	29.976 
18:05	37.0	37.0	37.0	53	21.5	1	5	248	0.00	29.978 
18:10	36.9	36.9	36.9	54	21.8	1	3	248	0.00	29.982 
18:15	36.9	36.9	36.9	54	21.8	1	5	248	0.00	29.982 
18:20	36.8	36.8	36.8	54	21.7	2	4	248	0.00	29.983 
18:25	36.8	36.8	36.8	54	21.7	2	7	248	0.00	29.982 
18:30	36.8	36.8	36.8	55	22.2	2	6	248	0.00	29.983 
18:35	36.6	36.6	36.6	55	22.0	1	3	248	0.00	29.983 
18:40	36.5	36.5	36.5	55	21.9	1	4	248	0.00	29.984 
18:45	36.5	36.5	36.5	55	21.9	2	6	248	0.00	29.985 
18:50	36.5	36.5	36.5	55	21.9	1	5	248	0.00	29.985 
18:55	36.5	36.5	36.5	56	22.3	1	3	248	0.00	29.988 
19:00	36.3	36.3	36.3	56	22.1	2	5	248	0.00	29.992 
19:05	36.3	36.3	36.3	56	22.1	2	6	248	0.00	29.998 
19:10	36.2	36.2	36.2	57	22.5	2	5	248	0.00	29.996 
19:15	36.2	36.2	36.2	57	22.5	2	6	248	0.00	29.994 
19:20	36.0	36.0	36.0	57	22.3	2	5	270	0.00	29.993 
19:25	36.0	36.0	36.0	57	22.3	3	6	248	0.00	29.993 
19:30	35.9	35.9	35.9	58	22.6	2	6	248	0.00	29.994 
19:35	35.9	35.9	35.9	58	22.6	1	5	225	0.00	29.997 
19:40	35.8	35.8	35.8	59	22.9	1	6	248	0.00	29.999 
19:45	35.6	35.6	35.6	59	22.7	1	3	248	0.00	29.996 
19:50	35.5	35.5	35.5	59	22.6	2	4	248	0.00	29.993 
19:55	35.5	35.5	35.5	59	22.6	1	3	248	0.00	29.991 
20:00	35.5	35.5	35.5	59	22.6	2	6	248	0.00	29.991 
20:05	35.3	35.3	35.3	59	22.4	1	3	248	0.00	29.992 
20:10	35.3	35.3	35.3	60	22.8	1	4	248	0.00	29.997 
20:15	35.2	35.2	35.2	61	23.1	1	4	248	0.00	30.000 
20:20	35.0	35.0	35.0	62	23.3	1	5	248	0.00	30.001 
20:25	34.9	34.9	34.9	62	23.2	1	5	248	0.00	30.003 
20:30	34.7	34.7	34.7	63	23.4	1	4	248	0.00	30.003 
20:35	34.6	34.6	34.6	64	23.7	1	3	248	0.00	30.004 
20:40	34.4	34.4	34.4	64	23.5	1	4	248	0.00	30.005 
20:45	34.3	34.3	34.3	64	23.4	1	4	248	0.00	30.005 
20:50	34.1	34.1	34.1	65	23.6	1	6	270	0.00	30.005 
20:55	34.0	34.0	34.0	65	23.5	1	3	248	0.00	30.007 
21:00	33.8	33.8	33.8	66	23.7	1	2	248	0.00	30.008 
21:05	33.7	33.7	33.7	66	23.6	1	6	248	0.00	30.010 
21:10	33.7	33.7	33.7	66	23.6	1	4	248	0.00	30.010 
21:15	33.5	33.5	33.5	67	23.7	1	3	270	0.00	30.011 
21:20	33.5	33.5	33.5	67	23.7	1	6	248	0.00	30.012 
21:25	33.4	33.4	33.4	67	23.6	1	2	248	0.00	30.013 
21:30	33.2	33.2	33.2	67	23.4	1	2	248	0.00	30.012 
21:35	33.1	33.1	33.1	67	23.4	1	3	248	0.00	30.015 
21:40	33.1	33.1	33.1	68	23.7	1	3	270	0.00	30.017 
21:45	32.9	32.9	32.9	68	23.5	1	3	248	0.00	30.015 
21:50	32.8	32.8	32.8	69	23.8	0	3	248	0.00	30.017 
21:55	32.7	32.7	32.7	69	23.7	1	2	248	0.00	30.017 
22:00	32.7	32.7	32.7	69	23.7	1	2	248	0.00	30.018 
22:05	32.5	32.5	32.5	69	23.5	1	2	248	0.00	30.020 
22:10	32.5	32.5	32.5	69	23.5	1	3	248	0.00	30.021 
22:15	32.4	32.4	32.4	69	23.4	1	2	248	0.00	30.021 
22:20	32.2	32.2	32.2	68	22.8	1	2	248	0.00	30.022 
22:25	32.1	32.1	32.1	67	22.4	1	2	248	0.00	30.024 
22:30	31.9	31.9	31.9	67	22.2	1	2	270	0.00	30.026 
22:35	31.8	31.8	31.8	66	21.8	1	2	270	0.00	30.025 
22:40	31.6	31.6	31.6	67	21.9	0	3	270	0.00	30.025 
22:45	31.3	31.3	31.3	67	21.6	0	2	270	0.00	30.025 
22:50	31.2	31.2	31.2	66	21.2	1	2	270	0.00	30.026 
22:55	31.0	31.0	31.0	66	21.0	1	3	270	0.00	30.026 
23:00	30.9	30.9	30.9	66	20.9	0	4	248	0.00	30.024 
23:05	30.7	30.7	30.7	67	21.1	0	3	270	0.00	30.024 
23:10	30.4	30.4	30.4	67	20.8	0	2	270	0.00	30.028 
23:15	30.3	30.3	30.3	67	20.7	0	2	270	0.00	30.026 
23:20	30.1	30.1	30.1	67	20.5	0	1	270	0.00	30.027 
23:25	30.0	30.0	30.0	67	20.4	0	3	270	0.00	30.025 
23:30	30.0	30.0	30.0	67	20.4	0	1	270	0.00	30.024 
23:35	29.7	29.7	29.7	67	20.1	0	1	270	0.00	30.028 
23:40	29.5	29.5	29.5	67	19.9	0	3	248	0.00	30.029 
23:45	29.4	29.4	29.4	67	19.8	0	1	248	0.00	30.032 
23:50	29.3	29.3	29.3	67	19.7	0	3	248	0.00	30.033 
23:55	29.1	29.1	29.1	67	19.5	0	2	248	0.00	30.035 

CoCoRaHS
IN-AL-39
A2 Web Hosting
Creative Commons License
GoDaddy
search engine by freefind advanced

loaded 2018-11-16 08:32:46 • last modified 2010-11-18 10:43:29
Privacy PolicyDisclaimer
• wx.awcolley.com is powered by PmWiki v.2002016 •
• all content (unless otherwise noted) © 2018 A W Colley